sensor_id;sensor_type;location;lat;lon;timestamp;P1;durP1;ratioP1;P2;durP2;ratioP2
79785;SDS011;69265;43.614;13.518;2023-06-14T19:05:39;7.63;;;5.68;;
79785;SDS011;69265;43.614;13.518;2023-06-14T19:08:05;6.38;;;4.97;;
79785;SDS011;69265;43.614;13.518;2023-06-14T19:10:32;8.45;;;5.43;;
79785;SDS011;69265;43.614;13.518;2023-06-14T19:12:58;7.50;;;5.95;;
79785;SDS011;69265;43.614;13.518;2023-06-14T19:15:26;7.93;;;6.32;;
79785;SDS011;69265;43.614;13.518;2023-06-14T19:17:59;9.93;;;6.40;;
79785;SDS011;69265;43.614;13.518;2023-06-14T19:20:28;7.90;;;6.63;;
79785;SDS011;69265;43.614;13.518;2023-06-14T19:22:54;8.30;;;6.32;;
79785;SDS011;69265;43.614;13.518;2023-06-14T19:25:20;8.15;;;6.47;;
79785;SDS011;69265;43.614;13.518;2023-06-14T19:27:47;9.82;;;6.95;;
79785;SDS011;69265;43.614;13.518;2023-06-14T19:30:14;8.95;;;6.60;;
79785;SDS011;69265;43.614;13.518;2023-06-14T19:32:41;9.15;;;6.88;;
79785;SDS011;69265;43.614;13.518;2023-06-14T19:35:08;8.77;;;7.28;;
79785;SDS011;69265;43.614;13.518;2023-06-14T19:37:37;9.07;;;7.05;;
79785;SDS011;69265;43.614;13.518;2023-06-14T19:40:03;9.45;;;7.40;;
79785;SDS011;69265;43.614;13.518;2023-06-14T19:42:30;12.25;;;6.68;;
79785;SDS011;69265;43.614;13.518;2023-06-14T19:44:57;8.82;;;6.88;;
79785;SDS011;69265;43.614;13.518;2023-06-14T19:47:26;8.65;;;6.40;;
79785;SDS011;69265;43.614;13.518;2023-06-14T19:49:52;8.45;;;7.13;;
79785;SDS011;69265;43.614;13.518;2023-06-14T19:52:19;8.90;;;6.80;;
79785;SDS011;69265;43.614;13.518;2023-06-14T19:54:48;10.23;;;6.05;;
79785;SDS011;69265;43.614;13.518;2023-06-14T19:57:15;7.70;;;6.05;;
79785;SDS011;69265;43.614;13.518;2023-06-14T19:59:42;6.45;;;5.03;;
79785;SDS011;69265;43.614;13.518;2023-06-14T20:02:09;7.82;;;6.25;;
79785;SDS011;69265;43.614;13.518;2023-06-14T20:04:36;6.18;;;4.65;;
79785;SDS011;69265;43.614;13.518;2023-06-14T20:07:03;5.38;;;4.78;;
79785;SDS011;69265;43.614;13.518;2023-06-14T20:09:34;6.30;;;5.63;;
79785;SDS011;69265;43.614;13.518;2023-06-14T20:12:01;8.05;;;4.20;;
79785;SDS011;69265;43.614;13.518;2023-06-14T20:14:28;6.63;;;4.40;;
79785;SDS011;69265;43.614;13.518;2023-06-14T20:16:55;5.63;;;3.60;;
79785;SDS011;69265;43.614;13.518;2023-06-14T20:19:22;6.43;;;4.38;;
79785;SDS011;69265;43.614;13.518;2023-06-14T20:21:48;5.25;;;4.30;;
79785;SDS011;69265;43.614;13.518;2023-06-14T20:24:15;5.28;;;4.32;;
79785;SDS011;69265;43.614;13.518;2023-06-14T20:26:41;7.57;;;4.18;;
79785;SDS011;69265;43.614;13.518;2023-06-14T20:29:08;5.60;;;4.07;;
79785;SDS011;69265;43.614;13.518;2023-06-14T20:31:34;5.90;;;3.90;;
79785;SDS011;69265;43.614;13.518;2023-06-14T20:34:00;5.57;;;4.03;;
79785;SDS011;69265;43.614;13.518;2023-06-14T20:36:27;5.10;;;4.10;;
79785;SDS011;69265;43.614;13.518;2023-06-14T20:38:55;5.30;;;4.22;;
79785;SDS011;69265;43.614;13.518;2023-06-14T20:41:21;5.32;;;4.28;;
79785;SDS011;69265;43.614;13.518;2023-06-14T20:43:47;6.10;;;3.90;;
79785;SDS011;69265;43.614;13.518;2023-06-14T20:46:14;5.95;;;4.15;;
79785;SDS011;69265;43.614;13.518;2023-06-14T20:48:42;6.88;;;4.10;;
79785;SDS011;69265;43.614;13.518;2023-06-14T20:51:09;6.53;;;4.82;;
79785;SDS011;69265;43.614;13.518;2023-06-14T20:53:35;6.65;;;4.18;;
79785;SDS011;69265;43.614;13.518;2023-06-14T20:56:02;4.60;;;4.13;;
79785;SDS011;69265;43.614;13.518;2023-06-14T20:58:28;6.60;;;4.70;;
79785;SDS011;69265;43.614;13.518;2023-06-14T21:00:54;6.45;;;4.97;;
79785;SDS011;69265;43.614;13.518;2023-06-14T21:03:20;5.28;;;4.65;;
79785;SDS011;69265;43.614;13.518;2023-06-14T21:05:46;5.65;;;4.70;;
79785;SDS011;69265;43.614;13.518;2023-06-14T21:08:12;5.97;;;4.70;;
79785;SDS011;69265;43.614;13.518;2023-06-14T21:10:38;6.75;;;5.72;;
79785;SDS011;69265;43.614;13.518;2023-06-14T21:13:04;6.03;;;5.03;;
79785;SDS011;69265;43.614;13.518;2023-06-14T21:15:29;6.97;;;5.22;;
79785;SDS011;69265;43.614;13.518;2023-06-14T21:17:55;8.13;;;5.20;;
79785;SDS011;69265;43.614;13.518;2023-06-14T21:20:21;10.43;;;5.22;;
79785;SDS011;69265;43.614;13.518;2023-06-14T21:22:47;9.73;;;5.32;;
79785;SDS011;69265;43.614;13.518;2023-06-14T21:25:14;7.32;;;5.05;;
79785;SDS011;69265;43.614;13.518;2023-06-14T21:27:40;6.60;;;5.18;;
79785;SDS011;69265;43.614;13.518;2023-06-14T21:30:06;18.53;;;5.10;;
